Time;durP1;ratioP1;P1;durP2;ratioP2;P2;SDS_P1;SDS_P2;PMS_P1;PMS_P2;Temp;Humidity;BMP_temperature;BMP_pressure;BME280_temperature;BME280_humidity;BME280_pressure;Samples;Min_cycle;Max_cycle;Signal;HPM_P1;HPM_P2
2021/07/06 00:00:22;;;;;;;1.67;1.57;;;18.50;99.90;;;;;;5053118;28;20426;-68
2021/07/06 00:02:50;;;;;;;2.30;1.40;;;18.50;99.90;;;;;;5033674;28;20414;-68
2021/07/06 00:05:15;;;;;;;1.77;1.67;;;18.50;99.90;;;;;;5033630;28;20772;-68
2021/07/06 00:07:41;;;;;;;3.90;1.63;;;18.40;99.90;;;;;;5033898;28;20400;-68
2021/07/06 00:10:09;;;;;;;1.70;1.43;;;18.50;99.90;;;;;;5033551;28;20196;-68
2021/07/06 00:12:35;;;;;;;1.83;1.73;;;18.50;99.90;;;;;;5033595;28;20158;-68
2021/07/06 00:15:00;;;;;;;2.20;1.30;;;18.50;99.90;;;;;;5049682;28;20433;-68
2021/07/06 00:17:26;;;;;;;1.63;1.50;;;18.50;99.90;;;;;;5053465;28;20275;-68
2021/07/06 00:19:52;;;;;;;1.50;1.40;;;18.50;99.90;;;;;;5053425;28;20271;-68
2021/07/06 00:22:17;;;;;;;1.40;1.30;;;18.40;99.90;;;;;;5053612;28;20160;-68
2021/07/06 00:24:44;;;;;;;2.10;1.50;;;18.50;99.90;;;;;;5053427;28;20213;-68
2021/07/06 00:27:09;;;;;;;1.50;1.40;;;18.50;99.90;;;;;;5053300;28;20626;-68
2021/07/06 00:29:35;;;;;;;1.87;1.47;;;18.50;99.90;;;;;;5053276;28;20475;-68
2021/07/06 00:32:01;;;;;;;2.10;1.30;;;18.50;99.90;;;;;;5048787;28;20630;-68
2021/07/06 00:34:27;;;;;;;2.70;1.60;;;18.50;99.90;;;;;;5043210;28;20183;-68
2021/07/06 00:36:52;;;;;;;1.50;1.40;;;18.50;99.90;;;;;;5033404;28;20968;-68
2021/07/06 00:39:18;;;;;;;1.47;1.33;;;18.50;99.90;;;;;;5033085;28;20153;-69
2021/07/06 00:41:44;;;;;;;1.77;1.40;;;18.50;99.90;;;;;;5035992;28;20183;-68
2021/07/06 00:44:19;;;;;;;1.43;1.27;;;18.50;99.90;;;;;;5052877;28;20289;-68
2021/07/06 00:46:45;;;;;;;1.83;1.07;;;18.50;99.90;;;;;;5052856;28;20420;-68
2021/07/06 00:49:12;;;;;;;2.03;1.10;;;18.60;99.90;;;;;;5034806;28;20438;-68
2021/07/06 00:51:37;;;;;;;2.50;1.07;;;18.60;99.90;;;;;;5033097;28;20400;-69
2021/07/06 00:54:04;;;;;;;2.33;2.00;;;18.60;99.90;;;;;;5032958;28;20404;-68
2021/07/06 00:56:30;;;;;;;3.30;1.70;;;18.50;99.90;;;;;;5032625;28;20204;-69
2021/07/06 00:58:56;;;;;;;1.40;1.30;;;18.60;99.90;;;;;;5032952;28;20787;-68
2021/07/06 01:01:22;;;;;;;1.60;1.50;;;18.50;99.90;;;;;;5036758;28;20424;-68
2021/07/06 01:03:48;;;;;;;1.20;1.13;;;18.50;99.90;;;;;;5033030;28;20407;-68
2021/07/06 01:06:15;;;;;;;1.60;1.20;;;18.50;99.90;;;;;;5050768;28;20416;-68
2021/07/06 01:08:45;;;;;;;2.00;1.53;;;18.50;99.90;;;;;;5052395;28;20409;-68
2021/07/06 01:11:12;;;;;;;2.13;1.87;;;18.50;99.90;;;;;;5052309;28;20462;-68
2021/07/06 01:13:38;;;;;;;3.30;1.40;;;18.50;99.90;;;;;;5052456;28;20396;-68
2021/07/06 01:16:04;;;;;;;1.40;1.30;;;18.50;99.90;;;;;;5052505;28;20403;-68
2021/07/06 01:18:30;;;;;;;2.47;1.07;;;18.50;99.90;;;;;;5052425;28;20471;-68
2021/07/06 01:20:57;;;;;;;1.40;1.30;;;18.60;99.90;;;;;;5052496;28;20246;-68
2021/07/06 01:23:26;;;;;;;1.30;1.20;;;18.50;99.90;;;;;;5051681;28;20413;-68
2021/07/06 01:25:55;;;;;;;1.00;1.00;;;18.50;99.90;;;;;;5052100;28;20387;-68
2021/07/06 01:28:21;;;;;;;2.30;1.17;;;18.50;99.90;;;;;;5052176;28;20418;-68
2021/07/06 01:30:46;;;;;;;2.90;1.73;;;18.60;99.90;;;;;;5051452;28;20437;-68
2021/07/06 01:33:19;;;;;;;2.40;1.30;;;18.60;99.90;;;;;;5052102;28;20253;-68
2021/07/06 01:35:45;;;;;;;4.60;1.30;;;18.60;99.90;;;;;;5052239;28;20159;-68
2021/07/06 01:38:10;;;;;;;2.30;1.10;;;18.60;99.90;;;;;;5050562;28;20804;-69
2021/07/06 01:40:36;;;;;;;3.80;1.30;;;18.60;99.90;;;;;;5032288;28;20161;-68
2021/07/06 01:43:02;;;;;;;2.87;1.20;;;18.60;99.90;;;;;;5032101;28;20154;-69
2021/07/06 01:45:30;;;;;;;1.60;1.30;;;18.60;99.90;;;;;;5032037;28;20153;-68
2021/07/06 01:47:59;;;;;;;2.03;1.30;;;18.60;99.90;;;;;;5032058;28;20405;-68
2021/07/06 01:50:27;;;;;;;1.87;1.37;;;18.60;99.90;;;;;;5031944;28;20888;-68
2021/07/06 01:52:55;;;;;;;2.50;1.27;;;18.60;99.90;;;;;;5031815;28;20436;-69
2021/07/06 01:55:24;;;;;;;1.30;1.20;;;18.60;99.90;;;;;;5032563;28;20456;-68
2021/07/06 01:57:52;;;;;;;2.60;1.00;;;18.50;99.90;;;;;;5031619;28;20482;-68
2021/07/06 02:00:20;;;;;;;2.87;1.47;;;18.50;99.90;;;;;;5033604;28;20436;-68
2021/07/06 02:02:46;;;;;;;3.87;1.30;;;18.50;99.90;;;;;;5038680;28;20549;-68
2021/07/06 02:07:52;;;;;;;2.60;1.50;;;18.50;99.90;;;;;;5130452;27;20928;-69
2021/07/06 02:10:18;;;;;;;1.40;0.97;;;18.40;99.90;;;;;;5130258;28;20819;-69
2021/07/06 02:12:44;;;;;;;1.60;1.20;;;18.40;99.90;;;;;;5123902;28;20696;-69
2021/07/06 02:15:12;;;;;;;2.37;1.40;;;18.40;99.90;;;;;;5110243;28;20387;-71
2021/07/06 02:17:38;;;;;;;2.20;1.33;;;18.40;99.90;;;;;;5109767;28;20166;-71
2021/07/06 02:20:09;;;;;;;0.93;0.93;;;18.40;99.90;;;;;;5110613;28;20400;-71
2021/07/06 02:22:35;;;;;;;1.53;1.20;;;18.40;99.90;;;;;;5109589;28;20392;-71
2021/07/06 02:25:01;;;;;;;1.40;1.30;;;18.40;99.90;;;;;;5109583;28;20426;-71
2021/07/06 02:27:27;;;;;;;1.60;1.50;;;18.40;99.90;;;;;;5109412;28;20482;-71
2021/07/06 02:29:52;;;;;;;1.60;1.00;;;18.40;99.90;;;;;;5111204;27;20818;-71
2021/07/06 02:32:18;;;;;;;2.20;1.30;;;18.40;99.90;;;;;;5130161;28;20248;-71
2021/07/06 02:34:43;;;;;;;1.17;1.07;;;18.40;99.90;;;;;;5130865;28;20237;-73
2021/07/06 02:37:09;;;;;;;1.40;1.30;;;18.40;99.90;;;;;;5129805;28;20143;-73
2021/07/06 02:39:34;;;;;;;2.00;1.10;;;18.40;99.90;;;;;;5129805;28;20173;-73
2021/07/06 02:42:00;;;;;;;1.57;1.10;;;18.40;99.90;;;;;;5129826;28;20154;-73
2021/07/06 02:44:26;;;;;;;1.10;1.00;;;18.40;99.90;;;;;;5129678;28;20161;-73
2021/07/06 02:46:51;;;;;;;3.40;1.33;;;18.40;99.90;;;;;;5122280;28;20189;-73
2021/07/06 02:49:17;;;;;;;3.20;1.70;;;18.40;99.90;;;;;;5109314;28;20162;-73
2021/07/06 02:51:42;;;;;;;1.30;1.20;;;18.40;99.90;;;;;;5109078;28;20203;-73
2021/07/06 02:54:08;;;;;;;6.30;1.73;;;18.40;99.90;;;;;;5109112;28;20157;-73
2021/07/06 02:56:33;;;;;;;2.30;2.00;;;18.40;99.90;;;;;;5108979;28;20154;-73
2021/07/06 02:58:59;;;;;;;1.20;1.03;;;18.50;99.90;;;;;;5108829;28;20182;-73
2021/07/06 03:01:24;;;;;;;0.93;0.93;;;18.50;99.90;;;;;;5108635;28;20423;-73
2021/07/06 03:03:50;;;;;;;1.20;1.10;;;18.50;99.90;;;;;;5109594;28;20181;-73
2021/07/06 03:06:16;;;;;;;1.87;1.33;;;18.50;99.90;;;;;;5108506;28;20203;-73
2021/07/06 03:08:42;;;;;;;1.50;1.30;;;18.50;99.90;;;;;;5108809;28;20181;-73
2021/07/06 03:11:08;;;;;;;1.80;1.03;;;18.60;99.90;;;;;;5108597;28;20462;-73
2021/07/06 03:13:33;;;;;;;2.80;0.90;;;18.60;99.90;;;;;;5108658;28;20159;-73
2021/07/06 03:16:00;;;;;;;1.30;1.20;;;18.60;99.90;;;;;;5109268;28;20159;-73
2021/07/06 03:18:26;;;;;;;4.80;1.50;;;18.60;99.90;;;;;;5099584;28;20619;-73
2021/07/06 03:20:52;;;;;;;2.13;1.10;;;18.60;99.90;;;;;;5095545;28;20401;-73
2021/07/06 03:23:18;;;;;;;2.10;1.27;;;18.60;99.90;;;;;;5095099;28;20181;-73
2021/07/06 03:25:44;;;;;;;6.10;1.43;;;18.60;99.90;;;;;;5094631;28;20171;-73
2021/07/06 03:28:11;;;;;;;1.07;0.97;;;18.60;99.90;;;;;;5094969;28;20392;-73
2021/07/06 03:30:38;;;;;;;1.53;1.23;;;18.70;99.90;;;;;;5103768;28;20433;-73
2021/07/06 03:33:06;;;;;;;1.37;1.00;;;18.70;99.90;;;;;;5114219;28;20506;-73
2021/07/06 03:35:31;;;;;;;1.60;1.23;;;18.60;99.90;;;;;;5115075;28;20420;-73
2021/07/06 03:37:57;;;;;;;1.53;1.10;;;18.60;99.90;;;;;;5106896;28;20443;-73
2021/07/06 03:40:24;;;;;;;3.20;1.60;;;18.70;99.90;;;;;;5094678;28;20608;-73
2021/07/06 03:42:51;;;;;;;2.67;1.23;;;18.60;99.90;;;;;;5094531;28;20392;-73
2021/07/06 03:45:18;;;;;;;2.83;1.43;;;18.70;99.90;;;;;;5094405;28;20406;-73
2021/07/06 03:47:44;;;;;;;4.73;1.40;;;18.70;99.90;;;;;;5094557;28;20441;-73
2021/07/06 03:50:12;;;;;;;2.17;1.97;;;18.70;99.90;;;;;;5094331;28;20396;-73
2021/07/06 03:52:38;;;;;;;1.30;1.20;;;18.70;99.90;;;;;;5094096;28;20404;-73
2021/07/06 03:55:05;;;;;;;1.30;1.20;;;18.70;99.90;;;;;;5094876;28;20408;-73
2021/07/06 03:57:31;;;;;;;5.47;1.27;;;18.70;99.90;;;;;;5094227;28;20400;-73
2021/07/06 04:00:00;;;;;;;2.00;1.43;;;18.70;99.90;;;;;;5097363;28;20445;-73
2021/07/06 04:02:26;;;;;;;2.40;1.47;;;18.70;99.90;;;;;;5114576;28;20396;-73
2021/07/06 04:04:52;;;;;;;1.90;1.53;;;18.80;99.90;;;;;;5114445;28;20918;-73
2021/07/06 04:07:18;;;;;;;2.80;1.07;;;18.80;99.90;;;;;;5114373;28;20677;-73
2021/07/06 04:09:44;;;;;;;1.63;1.10;;;18.80;99.90;;;;;;5114808;28;20414;-73
2021/07/06 04:12:09;;;;;;;3.53;2.57;;;18.80;99.90;;;;;;5113590;28;20497;-73
2021/07/06 04:14:35;;;;;;;2.63;1.33;;;18.90;99.90;;;;;;5114405;28;20143;-73
2021/07/06 04:17:01;;;;;;;1.50;1.20;;;18.90;99.90;;;;;;5114299;28;20261;-73
2021/07/06 04:19:27;;;;;;;3.97;1.20;;;18.90;99.90;;;;;;5114377;28;20225;-73
2021/07/06 04:21:52;;;;;;;1.60;1.50;;;18.90;99.90;;;;;;5114283;28;20403;-73
2021/07/06 04:24:18;;;;;;;3.13;1.63;;;19.00;99.90;;;;;;5114419;28;20570;-73
2021/07/06 04:26:44;;;;;;;1.20;1.10;;;18.90;99.90;;;;;;5113906;28;20533;-73
2021/07/06 04:29:10;;;;;;;3.10;1.30;;;19.00;99.90;;;;;;5112413;28;20170;-73
2021/07/06 04:31:36;;;;;;;1.90;1.67;;;19.00;99.90;;;;;;5094411;28;20436;-73
2021/07/06 04:34:01;;;;;;;1.73;1.60;;;19.00;99.90;;;;;;5093879;28;20155;-73
2021/07/06 04:36:27;;;;;;;1.73;1.50;;;19.10;99.90;;;;;;5093563;28;20158;-73
2021/07/06 04:38:52;;;;;;;2.43;1.50;;;19.10;99.90;;;;;;5093601;28;20269;-73
2021/07/06 04:41:18;;;;;;;3.33;1.33;;;19.10;99.90;;;;;;5093662;28;20193;-73
2021/07/06 04:43:43;;;;;;;4.80;1.33;;;19.10;99.90;;;;;;5093444;28;20583;-73
2021/07/06 04:46:09;;;;;;;2.40;1.40;;;19.10;99.90;;;;;;5102892;28;20649;-73
2021/07/06 04:48:35;;;;;;;2.77;1.53;;;19.10;99.90;;;;;;5113750;28;20435;-73
2021/07/06 04:51:09;;;;;;;3.00;1.50;;;19.10;99.90;;;;;;5113694;28;20516;-73
2021/07/06 04:53:36;;;;;;;2.60;1.57;;;19.10;99.90;;;;;;5113796;28;20210;-73
2021/07/06 04:56:02;;;;;;;1.53;1.23;;;19.00;99.90;;;;;;5113589;28;20887;-73
2021/07/06 04:58:29;;;;;;;1.60;1.50;;;18.90;99.90;;;;;;5113323;28;20518;-73
2021/07/06 05:00:55;;;;;;;2.50;1.47;;;18.90;99.90;;;;;;5111623;28;20514;-73
2021/07/06 05:03:21;;;;;;;1.63;1.47;;;18.80;99.90;;;;;;5110568;28;20496;-73
2021/07/06 05:05:47;;;;;;;3.10;1.23;;;18.80;99.90;;;;;;5113466;28;20464;-73
2021/07/06 05:08:13;;;;;;;7.20;2.03;;;18.80;99.90;;;;;;5113467;28;20159;-73
2021/07/06 05:10:39;;;;;;;1.93;1.40;;;18.80;99.90;;;;;;5113147;27;20177;-73
2021/07/06 05:13:05;;;;;;;4.60;1.73;;;18.70;99.90;;;;;;5113831;28;20400;-73
2021/07/06 05:15:30;;;;;;;1.60;1.50;;;18.70;99.90;;;;;;5113575;28;20604;-73
2021/07/06 05:17:56;;;;;;;4.57;1.83;;;18.70;99.90;;;;;;5113157;28;20432;-73
2021/07/06 05:20:22;;;;;;;1.80;1.57;;;18.60;99.90;;;;;;5112194;28;20180;-73
2021/07/06 05:22:48;;;;;;;3.00;1.90;;;18.60;99.90;;;;;;5113156;28;20162;-73
2021/07/06 05:25:14;;;;;;;3.00;1.77;;;18.60;99.90;;;;;;5112796;28;20158;-73
2021/07/06 05:27:40;;;;;;;2.97;1.83;;;18.50;99.90;;;;;;5113157;28;20558;-72
2021/07/06 05:30:08;;;;;;;3.57;1.87;;;18.50;99.90;;;;;;5103653;28;20722;-73
2021/07/06 05:32:37;;;;;;;4.50;2.50;;;18.50;99.90;;;;;;5092672;28;20151;-73
2021/07/06 05:35:03;;;;;;;2.13;1.93;;;18.50;99.90;;;;;;5092668;28;20480;-73
2021/07/06 05:37:28;;;;;;;3.37;2.57;;;18.50;99.90;;;;;;5104571;28;20513;-73
2021/07/06 05:39:54;;;;;;;3.37;1.90;;;18.40;99.90;;;;;;5112945;28;20395;-73
2021/07/06 05:42:20;;;;;;;3.10;1.90;;;18.50;99.90;;;;;;5112715;28;20240;-73
2021/07/06 05:44:46;;;;;;;3.43;2.50;;;18.50;99.90;;;;;;5113083;28;20252;-73
2021/07/06 05:47:11;;;;;;;3.33;2.60;;;18.40;99.90;;;;;;5112738;28;20221;-73
2021/07/06 05:49:37;;;;;;;6.40;1.93;;;18.40;99.90;;;;;;5112940;28;20157;-73
2021/07/06 05:52:03;;;;;;;2.77;1.97;;;18.40;99.90;;;;;;5112672;28;20193;-73
2021/07/06 05:54:29;;;;;;;2.67;2.37;;;18.40;99.90;;;;;;5099194;28;20420;-73
2021/07/06 05:56:55;;;;;;;4.77;2.50;;;18.30;99.90;;;;;;5099064;28;20518;-72
2021/07/06 05:59:20;;;;;;;3.00;1.80;;;18.30;99.90;;;;;;5106064;28;20199;-73
2021/07/06 06:01:46;;;;;;;3.13;1.80;;;18.30;99.90;;;;;;5106386;28;20435;-73
2021/07/06 06:04:12;;;;;;;6.70;2.17;;;18.20;99.90;;;;;;5107951;28;20177;-73
2021/07/06 06:06:38;;;;;;;2.97;2.40;;;18.20;99.90;;;;;;5093315;28;20202;-73
2021/07/06 06:09:04;;;;;;;2.83;2.63;;;18.20;99.90;;;;;;5113420;28;20566;-73
2021/07/06 06:11:30;;;;;;;2.27;2.00;;;18.10;99.90;;;;;;5107405;27;20183;-73
2021/07/06 06:13:55;;;;;;;2.67;2.37;;;18.10;99.90;;;;;;5099056;28;20252;-73
2021/07/06 06:16:21;;;;;;;3.70;2.60;;;18.10;99.90;;;;;;5107088;28;20468;-73
2021/07/06 06:18:54;;;;;;;2.27;2.07;;;18.10;99.90;;;;;;5103135;28;20177;-73
2021/07/06 06:21:24;;;;;;;3.00;2.27;;;18.00;99.90;;;;;;5097420;28;20175;-73
2021/07/06 06:23:49;;;;;;;3.20;2.50;;;18.10;99.90;;;;;;5105047;28;20434;-73
2021/07/06 06:26:15;;;;;;;4.23;2.53;;;18.00;99.90;;;;;;5103848;28;20449;-73
2021/07/06 06:28:40;;;;;;;4.20;3.03;;;18.00;99.90;;;;;;5097769;28;20174;-73
2021/07/06 06:31:07;;;;;;;3.63;2.40;;;18.00;99.90;;;;;;5099016;28;20170;-73
2021/07/06 06:33:32;;;;;;;6.77;2.67;;;18.00;99.90;;;;;;5097485;28;20568;-73
2021/07/06 06:35:58;;;;;;;2.67;2.27;;;18.00;99.90;;;;;;5101991;28;20433;-73
2021/07/06 06:38:23;;;;;;;4.80;3.53;;;18.00;99.90;;;;;;5096550;28;20180;-73
2021/07/06 06:40:49;;;;;;;3.40;2.20;;;18.00;99.90;;;;;;5107356;28;20182;-73
2021/07/06 06:43:15;;;;;;;2.50;2.30;;;18.00;99.90;;;;;;5099650;28;20194;-73
2021/07/06 06:45:40;;;;;;;2.40;2.20;;;18.00;99.90;;;;;;5094093;28;20241;-73
2021/07/06 06:48:06;;;;;;;5.03;2.80;;;18.00;99.90;;;;;;5090095;28;20275;-73
2021/07/06 06:50:32;;;;;;;3.03;2.40;;;18.00;99.90;;;;;;5102928;28;20182;-73
2021/07/06 06:52:57;;;;;;;4.70;2.50;;;18.00;99.90;;;;;;5113213;28;20603;-73
2021/07/06 06:55:23;;;;;;;2.07;1.97;;;18.00;99.90;;;;;;5103288;28;20160;-73
2021/07/06 06:57:48;;;;;;;2.23;1.93;;;18.00;99.90;;;;;;5093628;28;20537;-73
2021/07/06 07:00:14;;;;;;;2.83;2.53;;;18.00;99.90;;;;;;5094262;28;20283;-73
2021/07/06 07:02:40;;;;;;;3.00;1.93;;;18.00;99.90;;;;;;5094697;28;20183;-73
2021/07/06 07:05:06;;;;;;;2.00;1.90;;;18.00;99.90;;;;;;5098738;28;20259;-73
2021/07/06 07:07:32;;;;;;;2.73;2.47;;;18.00;99.90;;;;;;5110274;28;20459;-72
2021/07/06 07:09:58;;;;;;;3.17;2.23;;;17.90;99.90;;;;;;5099683;28;20408;-72
2021/07/06 07:12:23;;;;;;;2.30;2.10;;;17.90;99.90;;;;;;5114734;28;20174;-72
2021/07/06 07:14:49;;;;;;;5.33;2.50;;;17.90;99.90;;;;;;5097810;28;20175;-73
2021/07/06 07:17:15;;;;;;;2.53;2.33;;;17.90;99.90;;;;;;5097744;28;20205;-73
2021/07/06 07:19:41;;;;;;;1.93;1.83;;;17.80;99.90;;;;;;5096116;28;20424;-72
2021/07/06 07:22:07;;;;;;;4.40;2.40;;;17.80;99.90;;;;;;5111869;28;20435;-72
2021/07/06 07:24:34;;;;;;;3.40;2.87;;;17.80;99.90;;;;;;5100139;28;20792;-72
2021/07/06 07:27:00;;;;;;;3.80;2.20;;;17.70;99.90;;;;;;5104794;27;20448;-73
2021/07/06 07:29:26;;;;;;;4.13;2.13;;;17.60;99.90;;;;;;5105721;28;20424;-73
2021/07/06 07:31:52;;;;;;;4.83;3.00;;;17.60;99.90;;;;;;5094769;28;20395;-73
2021/07/06 07:34:18;;;;;;;2.23;2.03;;;17.60;99.90;;;;;;5094921;28;20159;-72
2021/07/06 07:36:43;;;;;;;3.90;2.50;;;17.60;99.90;;;;;;5095211;28;20423;-72
2021/07/06 07:39:10;;;;;;;4.70;2.97;;;17.70;99.90;;;;;;5094779;28;20174;-73
2021/07/06 07:41:36;;;;;;;5.03;3.13;;;17.60;99.90;;;;;;5094661;28;20194;-73
2021/07/06 07:44:02;;;;;;;3.80;2.83;;;17.70;99.90;;;;;;5095013;28;20432;-73
2021/07/06 07:46:28;;;;;;;3.30;2.60;;;17.70;99.90;;;;;;5093932;28;20202;-73
2021/07/06 07:48:54;;;;;;;3.70;2.70;;;17.80;99.90;;;;;;5102679;28;20424;-73
2021/07/06 07:51:19;;;;;;;3.97;2.57;;;17.80;99.90;;;;;;5113718;28;20530;-73
2021/07/06 07:53:46;;;;;;;2.13;2.03;;;17.90;99.90;;;;;;5112433;28;20184;-73
2021/07/06 07:56:12;;;;;;;2.60;2.40;;;17.90;99.90;;;;;;5098712;27;20182;-73
2021/07/06 07:58:38;;;;;;;3.03;2.47;;;17.90;99.90;;;;;;5093495;28;20448;-73
2021/07/06 08:01:04;;;;;;;3.00;2.80;;;18.00;99.90;;;;;;5094219;28;20416;-73
2021/07/06 08:03:29;;;;;;;4.20;1.90;;;18.00;99.90;;;;;;5094117;28;20536;-73
2021/07/06 08:05:58;;;;;;;3.00;2.60;;;18.10;99.90;;;;;;5093922;28;20192;-73
2021/07/06 08:08:24;;;;;;;2.53;2.13;;;18.10;99.90;;;;;;5095048;28;20632;-73
2021/07/06 08:10:53;;;;;;;1.93;1.83;;;18.10;99.90;;;;;;5109149;28;20418;-73
2021/07/06 08:13:23;;;;;;;2.53;2.30;;;18.10;99.90;;;;;;5109371;28;20425;-73
2021/07/06 08:15:49;;;;;;;2.87;2.10;;;18.10;99.90;;;;;;5103613;28;20932;-73
2021/07/06 08:18:16;;;;;;;2.70;2.27;;;18.10;99.90;;;;;;5097403;28;20405;-73
2021/07/06 08:20:43;;;;;;;1.90;1.80;;;18.20;99.90;;;;;;5101689;28;20511;-73
2021/07/06 08:23:08;;;;;;;2.63;2.10;;;18.20;99.90;;;;;;5096671;28;20515;-73
2021/07/06 08:25:34;;;;;;;2.37;2.17;;;18.20;99.90;;;;;;5103216;28;20509;-73
2021/07/06 08:27:59;;;;;;;2.10;1.77;;;18.30;99.90;;;;;;5096304;28;20229;-73
2021/07/06 08:30:25;;;;;;;2.00;1.60;;;18.30;99.90;;;;;;5098467;28;20177;-73
2021/07/06 08:32:50;;;;;;;3.43;2.03;;;18.40;99.90;;;;;;5093390;28;20167;-73
2021/07/06 08:35:16;;;;;;;4.10;2.00;;;18.40;99.90;;;;;;5092821;28;21115;-73
2021/07/06 08:37:42;;;;;;;3.33;2.00;;;18.50;99.90;;;;;;5094146;28;20573;-73
2021/07/06 08:40:09;;;;;;;2.43;1.60;;;18.60;99.90;;;;;;5105564;28;20174;-73
2021/07/06 08:42:37;;;;;;;2.40;1.83;;;18.70;99.90;;;;;;5110507;28;20428;-73
2021/07/06 08:45:03;;;;;;;1.70;1.60;;;18.80;99.90;;;;;;5108981;28;20423;-73
2021/07/06 08:47:30;;;;;;;1.97;1.77;;;18.90;99.90;;;;;;5101323;28;20471;-73
2021/07/06 08:49:56;;;;;;;2.00;1.80;;;19.00;99.90;;;;;;5093194;28;20412;-73
2021/07/06 08:52:23;;;;;;;1.60;1.40;;;19.10;99.90;;;;;;5097927;28;20427;-73
2021/07/06 08:54:48;;;;;;;2.90;1.60;;;19.20;99.90;;;;;;5109318;27;20282;-73
2021/07/06 08:57:14;;;;;;;2.87;1.67;;;19.30;99.90;;;;;;5111480;27;20467;-73
2021/07/06 08:59:41;;;;;;;1.70;1.53;;;19.40;99.90;;;;;;5108802;27;20643;-73
2021/07/06 09:02:12;;;;;;;2.00;1.57;;;19.40;99.90;;;;;;5104381;28;20292;-73
2021/07/06 09:04:47;;;;;;;1.83;1.50;;;19.50;99.90;;;;;;5102106;28;20424;-73
2021/07/06 09:07:13;;;;;;;1.63;1.50;;;19.50;99.90;;;;;;5096523;28;20491;-73
2021/07/06 09:09:39;;;;;;;7.10;1.57;;;19.60;99.90;;;;;;5096353;28;20424;-73
2021/07/06 09:12:06;;;;;;;1.63;1.33;;;19.60;99.90;;;;;;5092259;28;20500;-73
2021/07/06 09:14:33;;;;;;;1.93;1.43;;;19.60;99.90;;;;;;5104438;28;20230;-73
2021/07/06 09:19:54;;;;;;;5.83;2.10;;;19.70;99.90;;;;;;5082082;28;20600;-74
2021/07/06 09:22:23;;;;;;;3.53;1.60;;;19.70;99.90;;;;;;5066557;28;20507;-74
2021/07/06 09:24:59;;;;;;;1.73;1.63;;;19.70;99.90;;;;;;5059770;28;20430;-74
2021/07/06 09:30:18;;;;;;;3.50;3.20;;;19.70;99.90;;;;;;5062335;28;20541;-72
2021/07/06 09:32:47;;;;;;;1.97;1.63;;;19.60;99.90;;;;;;5033231;28;20429;-72
2021/07/06 09:35:17;;;;;;;1.70;1.27;;;19.60;99.90;;;;;;5036402;28;20426;-72
2021/07/06 09:37:49;;;;;;;1.50;1.30;;;19.70;99.90;;;;;;5045295;28;20514;-72
2021/07/06 09:48:38;;;;;;;9.83;2.13;;;19.90;99.90;;;;;;5059681;28;20529;-72
2021/07/06 09:51:21;;;;;;;3.60;2.10;;;20.00;99.90;;;;;;5080256;28;20833;-72
2021/07/06 09:53:48;;;;;;;2.73;1.80;;;20.00;99.90;;;;;;5058757;28;20430;-72
2021/07/06 09:56:16;;;;;;;1.97;1.03;;;20.10;99.90;;;;;;5056654;28;20434;-72
2021/07/06 09:59:00;;;;;;;1.80;1.53;;;20.10;99.90;;;;;;5062560;28;20453;-72
2021/07/06 10:01:26;;;;;;;1.30;1.20;;;20.10;99.90;;;;;;5061267;28;20441;-72
2021/07/06 10:03:54;;;;;;;3.97;2.03;;;20.10;99.90;;;;;;5060608;28;20442;-73
2021/07/06 10:06:22;;;;;;;1.60;1.50;;;20.00;99.90;;;;;;5048185;28;20468;-72
2021/07/06 10:08:51;;;;;;;1.43;1.33;;;20.00;99.90;;;;;;5049512;28;20423;-72
2021/07/06 10:11:17;;;;;;;3.43;1.77;;;20.10;99.90;;;;;;5065477;28;20421;-72
2021/07/06 10:13:43;;;;;;;3.50;1.40;;;20.00;99.90;;;;;;5054993;28;20492;-72
2021/07/06 10:16:08;;;;;;;2.80;2.13;;;20.00;99.90;;;;;;5049269;28;20418;-72
2021/07/06 10:18:36;;;;;;;3.50;1.07;;;20.00;99.90;;;;;;5054503;28;20539;-72
2021/07/06 10:21:03;;;;;;;1.33;1.13;;;20.00;99.90;;;;;;5052627;28;20589;-72
2021/07/06 10:23:30;;;;;;;1.87;1.33;;;20.10;99.90;;;;;;5054857;28;20450;-73
2021/07/06 10:25:58;;;;;;;2.17;1.80;;;20.20;99.90;;;;;;5051034;28;20417;-72
2021/07/06 10:28:26;;;;;;;1.60;1.27;;;20.20;99.90;;;;;;5052764;28;20466;-72
2021/07/06 10:30:52;;;;;;;1.80;1.20;;;20.40;99.90;;;;;;5057568;28;20560;-72
2021/07/06 10:33:34;;;;;;;1.10;1.00;;;20.50;99.90;;;;;;5048049;28;20509;-72
2021/07/06 10:36:01;;;;;;;3.27;1.67;;;20.70;99.90;;;;;;5055832;28;20204;-72
2021/07/06 10:41:05;;;;;;;1.80;1.60;;;20.80;99.90;;;;;;5066790;28;20536;-73
2021/07/06 10:49:15;;;;;;;1.20;1.10;;;21.00;99.90;;;;;;5053452;28;20628;-72
2021/07/06 10:59:37;;;;;;;1.77;1.33;;;21.70;99.90;;;;;;5068022;28;20547;-72
2021/07/06 11:02:19;;;;;;;1.60;1.47;;;21.70;99.90;;;;;;5046692;28;20426;-72
2021/07/06 11:10:13;;;;;;;1.77;1.30;;;21.70;99.90;;;;;;5046827;28;20590;-72
2021/07/06 11:12:44;;;;;;;2.13;1.23;;;21.90;99.90;;;;;;5032108;28;20426;-72
2021/07/06 11:23:21;;;;;;;1.20;0.80;;;22.30;99.90;;;;;;5059306;28;20533;-75
2021/07/06 11:25:48;;;;;;;1.10;0.80;;;22.40;99.90;;;;;;5055628;28;20914;-75
2021/07/06 11:30:59;;;;;;;1.83;1.60;;;22.30;99.90;;;;;;5077877;28;21681;-72
2021/07/06 11:33:37;;;;;;;1.57;1.40;;;22.30;99.90;;;;;;5034890;28;20427;-72
2021/07/06 11:36:06;;;;;;;2.70;1.30;;;22.30;99.90;;;;;;5029279;28;20514;-72
2021/07/06 11:38:42;;;;;;;3.10;1.03;;;22.30;99.90;;;;;;5044924;28;20411;-72
2021/07/06 11:41:10;;;;;;;3.53;1.10;;;22.30;99.90;;;;;;5047660;28;20418;-72
2021/07/06 11:43:37;;;;;;;1.23;0.80;;;22.30;99.90;;;;;;5043556;28;20846;-72
2021/07/06 11:46:06;;;;;;;1.40;1.00;;;22.40;99.90;;;;;;5040177;28;20427;-72
2021/07/06 11:48:34;;;;;;;1.83;1.10;;;22.40;99.90;;;;;;5045208;28;20474;-72
2021/07/06 11:51:01;;;;;;;1.60;0.87;;;22.40;99.90;;;;;;5041111;28;20514;-72
2021/07/06 11:53:29;;;;;;;1.93;1.10;;;22.40;99.90;;;;;;5040605;28;20427;-72
2021/07/06 11:55:56;;;;;;;0.83;0.70;;;22.40;99.90;;;;;;5040488;28;20526;-72
2021/07/06 11:58:25;;;;;;;1.20;1.07;;;22.40;99.90;;;;;;5043036;28;20939;-72
2021/07/06 12:00:53;;;;;;;0.90;0.80;;;22.30;99.90;;;;;;5038059;28;20501;-72
2021/07/06 12:06:07;;;;;;;1.47;1.03;;;22.40;99.90;;;;;;5063060;28;20562;-73
2021/07/06 12:16:36;;;;;;;2.73;1.10;;;22.40;99.90;;;;;;5059596;28;21190;-73
2021/07/06 12:19:06;;;;;;;1.60;0.90;;;22.60;99.90;;;;;;5047796;28;20513;-73
2021/07/06 12:21:35;;;;;;;5.07;1.10;;;22.70;99.90;;;;;;5043588;28;20463;-72
2021/07/06 12:24:08;;;;;;;0.90;0.90;;;22.80;99.90;;;;;;5043817;28;20492;-71
2021/07/06 12:26:39;;;;;;;2.30;0.80;;;22.90;99.90;;;;;;5038011;28;20431;-71
2021/07/06 12:29:05;;;;;;;1.27;1.17;;;23.00;99.90;;;;;;5044014;28;20433;-71
2021/07/06 12:31:33;;;;;;;1.50;0.97;;;23.10;99.90;;;;;;5048226;28;20433;-71
2021/07/06 12:36:45;;;;;;;0.80;0.70;;;23.20;99.90;;;;;;5064275;28;20540;-74
2021/07/06 12:42:20;;;;;;;1.53;0.90;;;23.30;99.90;;;;;;5059708;28;20672;-72
2021/07/06 12:44:48;;;;;;;4.20;0.90;;;23.40;99.90;;;;;;5049509;28;20861;-72
2021/07/06 12:49:54;;;;;;;3.60;0.90;;;23.50;99.90;;;;;;5071110;28;20654;-72
2021/07/06 12:52:22;;;;;;;1.47;0.70;;;23.60;99.90;;;;;;5069716;28;20423;-72
2021/07/06 12:54:48;;;;;;;1.97;0.80;;;23.60;99.90;;;;;;5065690;28;20477;-72
2021/07/06 12:57:25;;;;;;;1.15;0.95;;;23.50;99.70;;;;;;5065497;28;20427;-72
2021/07/06 13:00:05;;;;;;;0.77;0.70;;;23.50;99.10;;;;;;5055781;28;20197;-72
2021/07/06 13:02:32;;;;;;;0.63;0.60;;;23.40;98.80;;;;;;5055658;28;20438;-72
2021/07/06 13:04:58;;;;;;;0.80;0.80;;;23.40;99.40;;;;;;5049004;28;20435;-72
2021/07/06 13:07:26;;;;;;;1.63;0.70;;;23.30;98.30;;;;;;5059658;28;20801;-72
2021/07/06 13:10:11;;;;;;;1.30;0.80;;;23.20;98.70;;;;;;5060234;28;20201;-72
2021/07/06 13:12:39;;;;;;;2.50;0.80;;;23.20;97.70;;;;;;5055311;28;20186;-72
2021/07/06 13:15:07;;;;;;;0.70;0.70;;;23.20;96.00;;;;;;5064517;28;20441;-73
2021/07/06 13:17:33;;;;;;;1.17;0.97;;;23.20;96.90;;;;;;5051714;28;20895;-73
2021/07/06 13:22:38;;;;;;;2.77;0.83;;;23.20;97.60;;;;;;5054682;28;20868;-73
2021/07/06 13:25:06;;;;;;;1.00;0.87;;;23.10;94.10;;;;;;5050006;28;20447;-73
2021/07/06 13:27:32;;;;;;;3.13;1.07;;;23.00;95.30;;;;;;5034773;28;21243;-73
2021/07/06 13:30:02;;;;;;;5.77;0.80;;;22.90;94.50;;;;;;5058939;28;20440;-73
2021/07/06 13:32:28;;;;;;;1.23;0.80;;;22.90;94.00;;;;;;5048330;28;20433;-74
2021/07/06 13:34:54;;;;;;;2.70;1.37;;;22.90;95.70;;;;;;5035942;28;20927;-74
2021/07/06 13:37:21;;;;;;;1.63;0.77;;;22.90;95.80;;;;;;5056192;28;20440;-74
2021/07/06 13:39:46;;;;;;;2.17;0.83;;;22.90;97.20;;;;;;5053560;28;20502;-74
2021/07/06 13:42:12;;;;;;;1.20;0.90;;;23.00;96.50;;;;;;5059528;28;20456;-74
2021/07/06 13:44:38;;;;;;;2.70;1.10;;;23.00;98.90;;;;;;5062359;28;20314;-74
2021/07/06 13:47:07;;;;;;;4.87;1.67;;;23.10;96.60;;;;;;5064439;28;20563;-73
2021/07/06 13:49:32;;;;;;;4.83;0.93;;;23.20;95.50;;;;;;5040749;28;20184;-73
2021/07/06 13:51:59;;;;;;;3.80;0.87;;;23.20;93.50;;;;;;5047847;28;20436;-73
2021/07/06 13:54:28;;;;;;;2.13;0.80;;;23.30;93.10;;;;;;5044478;28;20633;-74
2021/07/06 13:56:56;;;;;;;2.60;0.90;;;23.30;92.20;;;;;;5046941;28;20472;-73